Time;durP1;ratioP1;P1;durP2;ratioP2;P2;SDS_P1;SDS_P2;PMS_P1;PMS_P2;Temp;Humidity;BMP_temperature;BMP_pressure;BME280_temperature;BME280_humidity;BME280_pressure;Samples;Min_cycle;Max_cycle;Signal;HPM_P1;HPM_P2
2023/01/30 00:01:57;;;;;;;24.77;13.98;;;2.20;72.00;;;;;;5056835;28;20215;-79
2023/01/30 00:04:25;;;;;;;22.63;14.00;;;2.20;72.00;;;;;;5052067;28;20241;-81
2023/01/30 00:06:54;;;;;;;26.38;15.00;;;2.20;72.00;;;;;;5048276;28;20196;-80
2023/01/30 00:09:22;;;;;;;23.75;13.85;;;2.30;72.00;;;;;;5056967;28;20198;-80
2023/01/30 00:11:50;;;;;;;23.80;14.07;;;2.30;72.10;;;;;;5054680;28;20721;-79
2023/01/30 00:14:18;;;;;;;22.10;12.98;;;2.30;72.20;;;;;;5061122;28;20208;-79
2023/01/30 00:16:46;;;;;;;20.90;13.15;;;2.40;72.20;;;;;;5050715;28;20275;-80
2023/01/30 00:19:14;;;;;;;22.30;13.45;;;2.40;72.20;;;;;;5052660;28;20222;-78
2023/01/30 00:21:42;;;;;;;21.95;13.05;;;2.40;72.10;;;;;;5054202;28;20219;-79
2023/01/30 00:24:11;;;;;;;23.35;14.60;;;2.40;72.20;;;;;;5050282;28;20215;-78
2023/01/30 00:26:39;;;;;;;22.30;13.20;;;2.40;72.30;;;;;;5047532;28;20212;-79
2023/01/30 00:29:09;;;;;;;21.40;12.57;;;2.40;72.30;;;;;;5055616;28;20575;-79
2023/01/30 00:31:37;;;;;;;24.40;13.82;;;2.40;72.30;;;;;;5051091;28;20249;-78
2023/01/30 00:34:05;;;;;;;22.98;12.55;;;2.50;72.40;;;;;;5060457;28;20196;-79
2023/01/30 00:36:33;;;;;;;23.75;14.10;;;2.50;72.30;;;;;;5044198;28;20211;-79
2023/01/30 00:39:01;;;;;;;20.67;12.30;;;2.50;72.40;;;;;;5056126;28;20298;-80
2023/01/30 00:47:07;;;;;;;22.02;13.48;;;2.50;72.50;;;;;;5047426;28;20977;-79
2023/01/30 00:49:36;;;;;;;19.83;12.15;;;2.50;72.60;;;;;;5053066;28;20298;-78
2023/01/30 00:52:05;;;;;;;19.90;12.02;;;2.50;72.70;;;;;;5049764;28;20299;-79
2023/01/30 00:54:33;;;;;;;22.85;13.10;;;2.50;72.60;;;;;;5049543;28;20702;-80
2023/01/30 00:57:02;;;;;;;22.88;12.88;;;2.50;72.70;;;;;;5050885;28;20206;-77
2023/01/30 00:59:31;;;;;;;22.90;12.80;;;2.50;72.90;;;;;;5053477;28;20623;-79
2023/01/30 01:01:59;;;;;;;22.90;13.40;;;2.50;72.80;;;;;;5060459;28;20242;-78
2023/01/30 01:04:27;;;;;;;28.10;12.68;;;2.50;72.90;;;;;;5054600;28;20266;-77
2023/01/30 01:06:55;;;;;;;21.63;13.40;;;2.50;73.00;;;;;;5048390;28;20215;-79
2023/01/30 01:09:23;;;;;;;25.15;13.18;;;2.50;73.30;;;;;;5053776;28;20234;-79
2023/01/30 01:11:52;;;;;;;23.70;14.07;;;2.50;73.20;;;;;;5050994;28;20234;-78
2023/01/30 01:14:21;;;;;;;23.23;13.55;;;2.50;73.30;;;;;;5049004;28;20212;-78
2023/01/30 01:16:50;;;;;;;27.30;13.75;;;2.60;73.20;;;;;;5048431;28;20222;-78
2023/01/30 01:19:18;;;;;;;24.77;13.60;;;2.60;73.30;;;;;;5052571;28;20298;-78
2023/01/30 01:21:45;;;;;;;19.90;12.50;;;2.60;73.40;;;;;;5057704;28;20227;-79
2023/01/30 01:24:15;;;;;;;20.20;13.73;;;2.60;73.40;;;;;;5049645;28;20312;-79
2023/01/30 01:26:44;;;;;;;25.48;13.90;;;2.60;73.40;;;;;;5057973;28;20910;-78
2023/01/30 01:29:13;;;;;;;21.77;12.85;;;2.60;73.50;;;;;;5055503;28;20203;-79
2023/01/30 01:31:43;;;;;;;25.33;13.85;;;2.70;73.50;;;;;;5058535;28;20223;-78
2023/01/30 01:34:12;;;;;;;21.88;12.38;;;2.70;73.60;;;;;;5052605;28;20218;-78
2023/01/30 01:36:43;;;;;;;24.13;12.23;;;2.60;73.70;;;;;;5053085;28;20225;-78
2023/01/30 01:39:22;;;;;;;23.48;11.95;;;2.70;73.70;;;;;;5056719;28;20811;-78
2023/01/30 01:41:49;;;;;;;23.05;12.93;;;2.70;73.70;;;;;;5050905;28;20299;-78
2023/01/30 01:44:17;;;;;;;16.65;10.52;;;2.70;73.80;;;;;;5052009;28;20553;-80
2023/01/30 01:46:51;;;;;;;21.27;12.20;;;2.70;74.10;;;;;;5056721;28;20199;-79
2023/01/30 01:49:23;;;;;;;23.63;13.30;;;2.70;74.10;;;;;;5053310;28;20561;-80
2023/01/30 01:51:55;;;;;;;18.92;11.70;;;2.70;74.10;;;;;;5047150;28;20227;-79
2023/01/30 01:54:29;;;;;;;19.40;11.35;;;2.80;74.10;;;;;;5050099;28;20204;-79
2023/01/30 01:57:01;;;;;;;21.55;12.43;;;2.80;74.20;;;;;;5068238;28;20563;-78
2023/01/30 01:59:34;;;;;;;17.17;11.25;;;2.80;74.10;;;;;;5053628;28;20208;-80
2023/01/30 02:02:09;;;;;;;19.73;11.55;;;2.80;74.20;;;;;;5055183;28;20306;-77
2023/01/30 02:07:26;;;;;;;22.38;12.50;;;2.80;74.40;;;;;;5049879;28;20208;-80
2023/01/30 02:09:54;;;;;;;20.70;12.82;;;2.80;74.40;;;;;;5057084;28;20295;-78
2023/01/30 02:12:22;;;;;;;22.98;12.40;;;2.80;74.40;;;;;;5051041;28;20206;-80
2023/01/30 02:14:50;;;;;;;21.58;13.20;;;2.80;74.60;;;;;;5052701;28;20195;-79
2023/01/30 02:17:20;;;;;;;26.02;14.13;;;2.80;74.60;;;;;;5051589;28;20206;-79
2023/01/30 02:19:54;;;;;;;25.95;14.27;;;2.80;74.60;;;;;;5051760;28;20242;-80
2023/01/30 02:22:54;;;;;;;25.08;14.73;;;2.80;74.70;;;;;;5048749;28;20572;-79
2023/01/30 02:25:40;;;;;;;19.50;13.55;;;2.80;74.60;;;;;;5027046;28;20212;-80
2023/01/30 02:28:39;;;;;;;23.35;13.00;;;2.80;74.70;;;;;;5054261;28;20289;-80
2023/01/30 02:31:29;;;;;;;25.63;13.10;;;2.80;74.80;;;;;;5052761;28;20224;-79
2023/01/30 02:34:15;;;;;;;25.05;13.52;;;2.80;74.90;;;;;;5048900;28;20857;-77
2023/01/30 02:36:51;;;;;;;24.90;14.48;;;2.80;74.90;;;;;;5050182;28;20262;-78
2023/01/30 02:39:30;;;;;;;21.63;13.52;;;2.80;74.90;;;;;;5056568;28;20196;-78
2023/01/30 02:42:03;;;;;;;23.77;12.93;;;2.80;75.00;;;;;;5049460;28;20231;-78
2023/01/30 02:44:42;;;;;;;25.00;13.23;;;2.80;75.10;;;;;;5054099;28;20212;-79
2023/01/30 02:47:16;;;;;;;23.58;13.00;;;2.80;75.10;;;;;;5051520;28;20210;-78
2023/01/30 02:49:48;;;;;;;26.40;14.05;;;2.90;75.10;;;;;;5059307;28;20724;-78
2023/01/30 02:52:17;;;;;;;25.15;12.85;;;2.90;75.00;;;;;;5058578;28;20199;-78
2023/01/30 02:54:46;;;;;;;19.80;12.05;;;2.90;75.10;;;;;;5048739;28;20215;-78
2023/01/30 02:57:20;;;;;;;27.58;13.68;;;2.90;75.10;;;;;;5047178;28;20878;-78
2023/01/30 02:59:54;;;;;;;26.08;13.93;;;2.90;75.10;;;;;;5048695;28;20264;-77
2023/01/30 03:02:36;;;;;;;26.63;14.45;;;2.90;75.10;;;;;;5058272;28;20234;-78
2023/01/30 03:05:26;;;;;;;25.70;14.65;;;2.90;75.30;;;;;;5048432;28;20257;-78
2023/01/30 03:08:04;;;;;;;23.15;13.48;;;2.90;75.30;;;;;;5055457;28;20192;-77
2023/01/30 03:10:37;;;;;;;22.85;13.52;;;2.90;75.30;;;;;;5055742;28;20282;-78
2023/01/30 03:13:16;;;;;;;24.30;13.55;;;3.00;75.30;;;;;;5074604;28;20281;-77
2023/01/30 03:15:49;;;;;;;25.15;13.43;;;3.00;75.40;;;;;;5054486;28;20237;-78
2023/01/30 03:18:20;;;;;;;20.85;11.55;;;3.00;75.40;;;;;;5055254;28;20195;-77
2023/01/30 03:20:48;;;;;;;21.20;12.25;;;3.00;75.60;;;;;;5052189;28;20222;-78
2023/01/30 03:23:16;;;;;;;22.08;12.32;;;3.00;75.60;;;;;;5057903;28;20206;-79
2023/01/30 03:25:47;;;;;;;19.40;11.90;;;3.00;75.40;;;;;;5055425;28;20437;-80
2023/01/30 03:28:19;;;;;;;19.00;10.32;;;3.00;75.60;;;;;;5056071;28;20200;-78
2023/01/30 03:30:48;;;;;;;19.50;12.23;;;3.00;75.60;;;;;;5052368;28;20223;-79
2023/01/30 03:33:16;;;;;;;20.10;11.30;;;3.00;75.70;;;;;;5059044;28;20846;-78
2023/01/30 03:35:49;;;;;;;19.45;11.40;;;3.00;75.70;;;;;;5060166;28;20198;-79
2023/01/30 03:38:17;;;;;;;17.42;10.60;;;3.00;75.80;;;;;;5060507;28;20273;-78
2023/01/30 03:40:46;;;;;;;21.45;11.75;;;3.00;76.00;;;;;;5069903;28;20245;-78
2023/01/30 03:43:15;;;;;;;18.73;10.40;;;3.00;75.90;;;;;;5058560;28;20239;-78
2023/01/30 03:45:43;;;;;;;16.58;10.15;;;3.10;75.90;;;;;;5061971;28;20301;-78
2023/01/30 03:48:11;;;;;;;20.27;11.10;;;3.00;76.50;;;;;;5060505;28;20204;-78
2023/01/30 03:50:39;;;;;;;17.30;10.68;;;3.00;76.20;;;;;;5078532;28;20740;-77
2023/01/30 03:53:08;;;;;;;17.15;10.10;;;3.00;76.40;;;;;;5049805;28;20266;-78
2023/01/30 03:55:36;;;;;;;17.90;10.00;;;3.00;76.50;;;;;;5061827;28;20287;-78
2023/01/30 03:58:04;;;;;;;17.67;10.27;;;3.00;76.50;;;;;;5058338;28;20203;-78
2023/01/30 04:00:33;;;;;;;19.42;10.57;;;3.00;76.50;;;;;;5054292;28;20715;-79
2023/01/30 04:03:02;;;;;;;19.05;10.65;;;3.00;76.50;;;;;;5060622;28;20222;-78
2023/01/30 04:05:31;;;;;;;18.00;10.25;;;3.00;76.60;;;;;;5056577;28;20653;-78
2023/01/30 04:08:04;;;;;;;16.75;9.52;;;3.00;76.60;;;;;;5060746;28;20648;-79
2023/01/30 04:10:33;;;;;;;16.05;10.18;;;3.10;76.60;;;;;;5057966;28;20227;-78
2023/01/30 04:13:01;;;;;;;15.27;9.05;;;3.10;76.60;;;;;;5054729;28;20219;-78
2023/01/30 04:15:31;;;;;;;18.35;10.65;;;3.10;76.70;;;;;;5058053;28;20208;-77
2023/01/30 04:18:17;;;;;;;19.00;10.20;;;3.10;76.70;;;;;;5050408;28;20215;-79
2023/01/30 04:20:50;;;;;;;16.55;9.93;;;3.10;76.80;;;;;;5056753;28;20223;-80
2023/01/30 04:23:23;;;;;;;16.08;9.77;;;3.10;76.90;;;;;;5053828;28;20307;-78
2023/01/30 04:25:53;;;;;;;20.20;12.18;;;3.20;76.80;;;;;;5056903;28;20204;-78
2023/01/30 04:28:23;;;;;;;21.45;11.65;;;3.10;76.90;;;;;;5050092;28;20853;-78
2023/01/30 04:30:53;;;;;;;19.00;10.70;;;3.10;76.90;;;;;;5053679;28;20223;-79
2023/01/30 04:33:47;;;;;;;18.77;10.65;;;3.10;76.90;;;;;;5059884;28;20276;-78
2023/01/30 04:36:15;;;;;;;20.48;10.13;;;3.10;77.00;;;;;;5057538;28;20229;-78
2023/01/30 04:38:44;;;;;;;17.20;9.60;;;3.10;77.10;;;;;;5049303;28;20200;-79
2023/01/30 04:41:14;;;;;;;17.23;10.35;;;3.10;77.10;;;;;;5052644;28;20236;-78
2023/01/30 04:43:43;;;;;;;17.27;10.25;;;3.10;77.10;;;;;;5056229;28;20212;-78
2023/01/30 04:46:29;;;;;;;21.92;12.45;;;3.10;77.10;;;;;;5058036;28;20305;-78
2023/01/30 04:48:57;;;;;;;20.08;10.88;;;3.10;77.20;;;;;;5055740;28;20206;-79
2023/01/30 04:51:26;;;;;;;20.05;11.75;;;3.20;77.20;;;;;;5055448;28;20281;-79
2023/01/30 04:53:54;;;;;;;20.95;12.00;;;3.20;77.10;;;;;;5052412;28;20298;-78
2023/01/30 04:56:23;;;;;;;19.75;11.27;;;3.20;77.30;;;;;;5054389;28;20208;-78
2023/01/30 04:58:52;;;;;;;20.10;11.52;;;3.10;77.30;;;;;;5055119;28;20208;-78
2023/01/30 05:01:25;;;;;;;18.65;10.73;;;3.10;77.40;;;;;;5059039;28;20679;-79
2023/01/30 05:03:53;;;;;;;18.58;10.80;;;3.20;77.30;;;;;;5049672;28;20282;-78
2023/01/30 05:06:22;;;;;;;21.02;11.10;;;3.20;77.40;;;;;;5049425;28;20224;-81
2023/01/30 05:08:51;;;;;;;22.20;12.20;;;3.20;77.40;;;;;;5059231;28;20195;-79
2023/01/30 05:11:20;;;;;;;18.08;10.98;;;3.20;77.50;;;;;;5057294;28;20215;-79
2023/01/30 05:13:50;;;;;;;21.85;11.40;;;3.20;77.40;;;;;;5056174;28;20216;-79
2023/01/30 05:16:19;;;;;;;19.75;12.07;;;3.20;77.40;;;;;;5052541;28;20215;-79
2023/01/30 05:18:48;;;;;;;21.60;12.32;;;3.20;77.60;;;;;;5056742;28;20199;-79
2023/01/30 05:21:18;;;;;;;19.45;11.98;;;3.20;77.50;;;;;;5055420;28;20225;-78
2023/01/30 05:23:46;;;;;;;19.55;12.13;;;3.20;77.50;;;;;;5057834;28;20211;-79
2023/01/30 05:26:21;;;;;;;23.88;10.77;;;3.10;77.60;;;;;;5053293;28;20610;-79
2023/01/30 05:28:55;;;;;;;24.00;12.30;;;3.20;77.70;;;;;;5054095;28;20199;-80
2023/01/30 05:31:23;;;;;;;20.63;11.85;;;3.10;77.80;;;;;;5047774;28;20849;-79
2023/01/30 05:33:52;;;;;;;17.77;10.55;;;3.20;77.80;;;;;;5054809;28;20215;-80
2023/01/30 05:36:22;;;;;;;20.35;11.95;;;3.20;77.70;;;;;;5057992;28;20200;-79
2023/01/30 05:38:50;;;;;;;17.30;10.60;;;3.20;77.90;;;;;;5053646;28;20204;-79
2023/01/30 05:41:19;;;;;;;21.13;10.13;;;3.20;77.80;;;;;;5052393;28;20247;-79
2023/01/30 05:43:50;;;;;;;20.77;11.98;;;3.20;77.70;;;;;;5058549;28;20199;-79
2023/01/30 05:46:19;;;;;;;22.42;11.40;;;3.20;77.80;;;;;;5056630;28;20222;-79
2023/01/30 05:48:47;;;;;;;21.73;11.32;;;3.30;77.90;;;;;;5058102;28;20598;-79
2023/01/30 05:51:17;;;;;;;24.17;11.80;;;3.20;77.80;;;;;;5055898;28;20226;-78
2023/01/30 05:53:45;;;;;;;21.80;11.85;;;3.20;77.80;;;;;;5058202;28;20207;-79
2023/01/30 05:56:13;;;;;;;20.63;12.38;;;3.30;77.90;;;;;;5061184;28;20199;-79
2023/01/30 05:58:42;;;;;;;20.50;12.02;;;3.20;78.00;;;;;;5064201;28;20238;-80
2023/01/30 06:01:12;;;;;;;20.48;11.27;;;3.30;77.90;;;;;;5059496;28;20230;-79
2023/01/30 06:03:41;;;;;;;22.98;12.50;;;3.30;78.10;;;;;;5056798;28;20204;-80
2023/01/30 06:06:12;;;;;;;20.35;11.35;;;3.30;78.10;;;;;;5051438;28;20222;-79
2023/01/30 06:08:41;;;;;;;20.58;12.25;;;3.30;78.10;;;;;;5058652;28;20200;-79
2023/01/30 06:11:11;;;;;;;21.42;12.07;;;3.30;78.20;;;;;;5052074;28;20223;-79
2023/01/30 06:13:40;;;;;;;21.88;12.45;;;3.30;78.20;;;;;;5052406;28;20200;-79
2023/01/30 06:16:10;;;;;;;17.80;10.07;;;3.30;78.20;;;;;;5057371;28;21107;-78
2023/01/30 06:18:39;;;;;;;23.38;11.93;;;3.30;78.30;;;;;;5055831;28;20738;-80
2023/01/30 06:21:08;;;;;;;18.52;10.85;;;3.30;78.40;;;;;;5055963;28;20625;-80
2023/01/30 06:23:37;;;;;;;19.80;10.68;;;3.30;78.40;;;;;;5055636;28;20254;-78
2023/01/30 06:26:05;;;;;;;20.45;11.68;;;3.30;78.50;;;;;;5053219;28;20245;-79
2023/01/30 06:28:36;;;;;;;18.85;10.00;;;3.30;78.40;;;;;;5049779;28;20200;-79
2023/01/30 06:31:06;;;;;;;17.90;10.90;;;3.30;78.50;;;;;;5052959;28;20314;-80
2023/01/30 06:33:35;;;;;;;19.38;12.00;;;3.30;78.60;;;;;;5058248;28;20203;-79
2023/01/30 06:36:03;;;;;;;19.67;11.35;;;3.30;78.80;;;;;;5059704;28;20725;-80
2023/01/30 06:38:32;;;;;;;19.33;11.77;;;3.30;78.80;;;;;;5054285;28;20284;-78
2023/01/30 06:41:00;;;;;;;18.55;11.25;;;3.30;78.80;;;;;;5057070;28;20231;-79
2023/01/30 06:43:28;;;;;;;19.92;11.75;;;3.30;78.70;;;;;;5055064;28;20855;-79
2023/01/30 06:45:57;;;;;;;21.70;12.38;;;3.40;78.70;;;;;;5063829;28;20203;-79
2023/01/30 06:48:26;;;;;;;21.15;11.65;;;3.40;78.70;;;;;;5055515;28;20736;-77
2023/01/30 06:50:53;;;;;;;18.15;9.93;;;3.40;78.70;;;;;;5061223;28;20897;-77
2023/01/30 06:53:24;;;;;;;22.05;10.90;;;3.30;78.80;;;;;;5057900;28;20204;-78
2023/01/30 06:55:53;;;;;;;20.08;11.15;;;3.30;78.80;;;;;;5061563;28;20200;-79
2023/01/30 06:58:21;;;;;;;21.52;11.60;;;3.30;79.00;;;;;;5062229;28;20336;-78
2023/01/30 07:00:49;;;;;;;22.63;10.32;;;3.30;79.10;;;;;;5058091;28;20246;-78
2023/01/30 07:03:18;;;;;;;23.58;12.88;;;3.30;79.20;;;;;;5051146;28;20200;-79
2023/01/30 07:05:47;;;;;;;20.83;12.13;;;3.30;79.00;;;;;;5055965;28;20648;-78
2023/01/30 07:08:16;;;;;;;21.60;11.90;;;3.20;79.60;;;;;;5055073;28;20266;-78
2023/01/30 07:10:44;;;;;;;20.25;11.85;;;3.30;79.30;;;;;;5061654;28;20224;-79
2023/01/30 07:13:14;;;;;;;22.13;12.30;;;3.30;79.20;;;;;;5063002;28;20191;-78
2023/01/30 07:15:42;;;;;;;22.25;12.18;;;3.30;79.10;;;;;;5053484;28;20264;-78
2023/01/30 07:18:10;;;;;;;22.05;12.15;;;3.30;79.00;;;;;;5059530;28;20266;-78
2023/01/30 07:20:38;;;;;;;22.40;13.82;;;3.30;79.00;;;;;;5061000;28;20235;-78
2023/01/30 07:23:05;;;;;;;22.17;12.98;;;3.30;78.90;;;;;;5052575;28;20196;-78
2023/01/30 07:25:33;;;;;;;21.80;12.45;;;3.30;79.10;;;;;;5065162;28;20609;-83
2023/01/30 07:28:03;;;;;;;24.63;13.75;;;3.30;79.00;;;;;;5063580;28;20234;-83
2023/01/30 07:30:34;;;;;;;22.35;12.35;;;3.20;79.10;;;;;;5056576;28;20246;-83
2023/01/30 07:33:04;;;;;;;23.13;13.50;;;3.30;79.00;;;;;;5060507;28;20208;-84
2023/01/30 07:35:34;;;;;;;20.92;13.40;;;3.20;79.40;;;;;;5066554;28;20204;-83
2023/01/30 07:38:02;;;;;;;20.90;12.30;;;3.20;79.20;;;;;;5053763;28;20210;-84
2023/01/30 07:40:31;;;;;;;24.75;13.90;;;3.20;79.20;;;;;;5052221;28;20257;-83
2023/01/30 07:43:01;;;;;;;28.90;13.45;;;3.10;79.40;;;;;;5055438;28;20769;-83
2023/01/30 07:45:34;;;;;;;114.75;54.92;;;3.10;79.50;;;;;;5060242;28;20204;-83
2023/01/30 07:48:02;;;;;;;41.90;22.23;;;3.10;79.40;;;;;;5060469;28;20223;-83
2023/01/30 07:50:30;;;;;;;21.88;12.98;;;3.20;79.50;;;;;;5055094;28;20725;-84
2023/01/30 07:52:58;;;;;;;22.25;12.90;;;3.20;79.50;;;;;;5053334;28;20242;-83
2023/01/30 07:55:27;;;;;;;21.63;12.00;;;3.10;79.50;;;;;;5059793;28;20292;-83
2023/01/30 07:57:55;;;;;;;22.15;12.90;;;3.10;79.50;;;;;;5055497;28;20204;-83
2023/01/30 08:00:23;;;;;;;17.92;11.63;;;3.10;79.60;;;;;;5055792;28;20219;-82
2023/01/30 08:02:53;;;;;;;20.58;12.25;;;3.10;79.60;;;;;;5057108;28;20210;-83
2023/01/30 08:05:21;;;;;;;22.55;12.55;;;3.10;79.70;;;;;;5066564;28;20237;-83
2023/01/30 08:07:49;;;;;;;19.77;12.13;;;3.10;79.70;;;;;;5057054;28;20216;-83
2023/01/30 08:10:17;;;;;;;27.17;12.45;;;3.10;79.80;;;;;;5055132;28;20223;-84
2023/01/30 08:12:45;;;;;;;23.77;13.13;;;3.10;80.00;;;;;;5062196;28;20231;-83
2023/01/30 08:15:13;;;;;;;19.23;11.48;;;3.10;79.90;;;;;;5059205;28;20254;-83
2023/01/30 08:17:41;;;;;;;19.80;11.25;;;3.10;80.00;;;;;;5059569;28;20207;-84
2023/01/30 08:20:15;;;;;;;17.80;11.05;;;3.10;79.90;;;;;;5056916;28;20791;-84
2023/01/30 08:22:43;;;;;;;17.67;10.32;;;3.10;80.20;;;;;;5058408;28;20291;-83
2023/01/30 08:25:11;;;;;;;21.58;11.23;;;3.20;80.20;;;;;;5060060;28;20217;-83
2023/01/30 08:27:39;;;;;;;18.63;10.15;;;3.20;80.10;;;;;;5054209;28;20223;-83
2023/01/30 08:30:09;;;;;;;14.75;9.25;;;3.20;80.20;;;;;;5062798;28;20300;-83
2023/01/30 08:32:37;;;;;;;14.98;9.73;;;3.20;80.20;;;;;;5047846;28;20223;-83
2023/01/30 08:35:06;;;;;;;14.35;8.68;;;3.20;80.30;;;;;;5060441;28;20695;-83
2023/01/30 08:37:36;;;;;;;13.27;7.82;;;3.20;80.50;;;;;;5054757;28;20207;-83
2023/01/30 08:40:04;;;;;;;16.63;8.70;;;3.20;80.50;;;;;;5061568;28;20231;-83
2023/01/30 08:42:32;;;;;;;13.80;8.10;;;3.20;80.50;;;;;;5056262;28;20787;-86
2023/01/30 08:45:00;;;;;;;13.90;8.27;;;3.30;80.50;;;;;;5056094;28;20307;-85
2023/01/30 08:47:28;;;;;;;14.10;8.07;;;3.30;80.50;;;;;;5061235;28;20911;-85
2023/01/30 08:49:56;;;;;;;14.98;8.88;;;3.30;80.60;;;;;;5059400;28;20284;-85
2023/01/30 08:52:24;;;;;;;12.48;7.57;;;3.30;80.60;;;;;;5064415;28;20241;-83
2023/01/30 08:54:53;;;;;;;12.68;7.97;;;3.40;80.70;;;;;;5060917;28;20207;-84
2023/01/30 08:57:21;;;;;;;12.75;7.70;;;3.40;80.60;;;;;;5059095;28;20713;-82
2023/01/30 08:59:50;;;;;;;12.68;8.02;;;3.40;80.80;;;;;;5064827;28;20207;-83
2023/01/30 09:02:18;;;;;;;10.70;6.88;;;3.50;80.60;;;;;;5050091;28;20232;-84
2023/01/30 09:04:46;;;;;;;11.88;7.25;;;3.40;80.70;;;;;;5055352;28;20967;-84
2023/01/30 09:07:14;;;;;;;12.15;7.20;;;3.40;80.90;;;;;;5065342;28;20211;-83
2023/01/30 09:09:41;;;;;;;13.70;8.05;;;3.40;81.10;;;;;;5059216;28;20220;-83
2023/01/30 09:12:11;;;;;;;15.10;6.95;;;3.40;80.90;;;;;;5063068;28;20268;-83
2023/01/30 09:14:39;;;;;;;10.88;6.78;;;3.40;81.00;;;;;;5054882;28;20200;-83
2023/01/30 09:17:07;;;;;;;10.43;6.00;;;3.40;81.10;;;;;;5059682;28;20909;-84
2023/01/30 09:19:36;;;;;;;10.82;6.40;;;3.40;81.10;;;;;;5059872;28;20192;-83
2023/01/30 09:22:04;;;;;;;11.00;6.60;;;3.40;80.90;;;;;;5057484;28;20219;-84
2023/01/30 09:24:32;;;;;;;10.32;6.15;;;3.50;80.90;;;;;;5062963;28;20210;-83
2023/01/30 09:27:00;;;;;;;7.68;4.82;;;3.40;81.00;;;;;;5059522;28;20812;-84
2023/01/30 09:29:29;;;;;;;9.10;5.53;;;3.40;81.00;;;;;;5058546;28;20222;-84
2023/01/30 09:31:57;;;;;;;8.85;5.28;;;3.50;81.00;;;;;;5052914;28;20596;-83
2023/01/30 09:34:27;;;;;;;8.65;5.85;;;3.50;81.00;;;;;;5060289;28;20191;-85
2023/01/30 09:36:58;;;;;;;8.02;4.80;;;3.50;80.80;;;;;;5058621;28;20191;-82
2023/01/30 09:39:27;;;;;;;9.27;4.95;;;3.50;81.10;;;;;;5062612;28;21004;-82
2023/01/30 09:42:19;;;;;;;7.13;4.68;;;3.50;81.10;;;;;;5065820;28;20246;-83
2023/01/30 09:45:11;;;;;;;8.65;5.50;;;3.60;81.20;;;;;;5065097;28;20214;-83
2023/01/30 09:47:48;;;;;;;8.05;4.75;;;3.60;81.20;;;;;;5058085;28;20212;-83
2023/01/30 09:50:40;;;;;;;7.53;4.72;;;3.60;81.20;;;;;;5046467;28;20289;-82
2023/01/30 09:53:18;;;;;;;8.30;4.70;;;3.60;81.20;;;;;;5053418;28;20211;-83
2023/01/30 09:55:47;;;;;;;45.67;23.17;;;3.60;81.20;;;;;;5055942;28;20564;-83
2023/01/30 09:58:18;;;;;;;9.02;5.57;;;3.60;81.30;;;;;;5062687;28;20211;-83
2023/01/30 10:00:52;;;;;;;7.25;4.65;;;3.60;81.30;;;;;;5055696;28;20215;-83
2023/01/30 10:03:26;;;;;;;8.82;4.95;;;3.60;81.40;;;;;;5054764;28;20213;-83
2023/01/30 10:05:57;;;;;;;10.43;5.45;;;3.60;81.40;;;;;;5066820;28;20759;-84
2023/01/30 10:08:42;;;;;;;9.10;5.10;;;3.70;81.40;;;;;;5061238;28;20253;-84
2023/01/30 10:11:25;;;;;;;8.13;5.50;;;3.70;81.50;;;;;;5058265;28;20238;-83
2023/01/30 10:14:15;;;;;;;12.93;5.75;;;3.70;81.30;;;;;;5062899;28;20248;-83
2023/01/30 10:17:00;;;;;;;9.98;5.95;;;3.70;81.40;;;;;;5069858;28;20203;-82
2023/01/30 10:19:49;;;;;;;9.57;5.50;;;3.70;81.40;;;;;;5065002;28;20278;-84
2023/01/30 10:22:29;;;;;;;9.68;5.40;;;3.70;81.40;;;;;;5067245;28;20220;-83
2023/01/30 10:25:10;;;;;;;11.43;6.15;;;3.70;81.30;;;;;;5066713;28;20198;-83
2023/01/30 10:27:45;;;;;;;11.07;6.18;;;3.70;81.30;;;;;;5062988;28;20522;-84
2023/01/30 10:30:16;;;;;;;9.43;5.40;;;3.80;81.40;;;;;;5059705;28;20716;-83
2023/01/30 10:32:51;;;;;;;9.85;5.90;;;3.80;81.50;;;;;;5059470;28;20208;-82
2023/01/30 10:35:23;;;;;;;9.25;5.47;;;3.80;81.40;;;;;;5063734;28;20215;-84
2023/01/30 10:38:02;;;;;;;9.38;5.75;;;3.80;81.50;;;;;;5061718;28;20210;-80
2023/01/30 10:40:36;;;;;;;10.70;6.57;;;3.80;81.60;;;;;;5050068;28;20281;-79
2023/01/30 10:43:15;;;;;;;8.35;5.22;;;3.80;81.60;;;;;;5062149;28;20211;-81
2023/01/30 10:45:53;;;;;;;10.25;6.57;;;3.80;81.60;;;;;;5062223;28;20218;-81
2023/01/30 10:48:45;;;;;;;8.82;5.20;;;3.80;81.70;;;;;;5054884;28;20203;-85
2023/01/30 10:51:23;;;;;;;8.75;5.40;;;3.90;81.90;;;;;;5055120;28;20235;-84
2023/01/30 10:53:57;;;;;;;9.80;5.03;;;3.90;81.90;;;;;;5060822;28;20203;-83
2023/01/30 10:56:37;;;;;;;8.30;5.05;;;3.90;81.70;;;;;;5060449;28;20282;-85
2023/01/30 10:59:20;;;;;;;7.65;4.78;;;3.90;81.70;;;;;;5058832;28;20218;-81
2023/01/30 11:01:58;;;;;;;8.27;5.40;;;4.00;81.80;;;;;;5056594;28;20238;-82
2023/01/30 11:04:33;;;;;;;7.68;4.97;;;4.00;81.80;;;;;;5057290;28;20200;-81
2023/01/30 11:07:01;;;;;;;9.00;5.78;;;4.10;81.80;;;;;;5057608;28;20214;-82
2023/01/30 11:09:40;;;;;;;8.40;5.45;;;4.00;81.80;;;;;;5056249;28;20213;-83
2023/01/30 11:12:08;;;;;;;11.68;5.90;;;4.10;81.80;;;;;;5064359;28;20207;-84
2023/01/30 11:14:55;;;;;;;8.63;5.35;;;4.20;81.90;;;;;;5082475;28;20234;-83
2023/01/30 11:17:32;;;;;;;8.00;5.00;;;4.30;82.00;;;;;;5061640;28;20553;-81
2023/01/30 11:20:08;;;;;;;9.70;6.32;;;4.40;82.00;;;;;;5057804;28;20284;-81
2023/01/30 11:22:45;;;;;;;9.30;6.07;;;4.40;81.90;;;;;;5057062;28;20204;-81
2023/01/30 11:25:15;;;;;;;9.30;5.40;;;4.50;81.80;;;;;;5058582;28;20207;-81
2023/01/30 11:27:51;;;;;;;10.45;5.90;;;4.60;81.80;;;;;;5057455;28;20253;-83
2023/01/30 11:30:20;;;;;;;8.48;5.57;;;4.70;81.60;;;;;;5055990;28;20230;-80
2023/01/30 11:32:50;;;;;;;10.98;5.90;;;4.70;81.60;;;;;;5058107;28;20200;-82
2023/01/30 11:35:29;;;;;;;9.57;6.45;;;4.70;81.60;;;;;;5055021;28;20200;-81
2023/01/30 11:38:11;;;;;;;8.57;4.95;;;4.70;81.50;;;;;;5060100;28;20194;-80
2023/01/30 11:40:40;;;;;;;9.50;5.95;;;4.80;81.50;;;;;;5056131;28;20219;-84
2023/01/30 11:43:13;;;;;;;9.30;6.00;;;4.80;81.40;;;;;;5057608;28;20208;-81
2023/01/30 11:45:45;;;;;;;9.13;5.95;;;4.70;81.40;;;;;;5059423;28;20204;-82
2023/01/30 11:48:18;;;;;;;9.88;5.43;;;4.70;81.50;;;;;;5050238;28;20538;-81
2023/01/30 11:51:10;;;;;;;11.25;6.50;;;4.70;81.60;;;;;;5061272;28;20900;-81
2023/01/30 11:53:41;;;;;;;7.65;5.25;;;4.70;81.70;;;;;;5054702;28;20191;-83
2023/01/30 11:56:15;;;;;;;9.55;5.68;;;4.80;81.70;;;;;;5059629;28;20894;-80
2023/01/30 11:58:47;;;;;;;7.07;4.50;;;4.80;81.60;;;;;;5059978;28;20277;-81
2023/01/30 12:01:17;;;;;;;8.40;5.07;;;4.80;81.60;;;;;;5054745;28;20228;-81
2023/01/30 12:03:50;;;;;;;10.95;5.80;;;4.90;81.60;;;;;;5057915;28;20207;-81
2023/01/30 12:06:24;;;;;;;10.18;5.43;;;4.90;81.60;;;;;;5054558;28;20195;-81
2023/01/30 12:08:54;;;;;;;7.82;4.95;;;4.90;81.60;;;;;;5056960;28;20223;-82
2023/01/30 12:11:26;;;;;;;11.27;6.18;;;4.90;81.60;;;;;;5058350;28;20240;-80
2023/01/30 12:13:57;;;;;;;9.88;5.38;;;5.00;81.60;;;;;;5060648;28;20196;-82
2023/01/30 12:16:35;;;;;;;10.68;5.60;;;5.00;81.40;;;;;;5056134;28;20211;-83
2023/01/30 12:19:11;;;;;;;8.82;5.32;;;5.00;81.30;;;;;;5052714;28;20242;-82
2023/01/30 12:21:46;;;;;;;7.47;5.03;;;5.00;81.30;;;;;;5049880;28;20217;-83
2023/01/30 12:24:21;;;;;;;8.25;5.07;;;5.00;81.30;;;;;;5042926;28;20191;-83
2023/01/30 12:26:55;;;;;;;7.03;4.85;;;5.00;81.40;;;;;;5022645;28;20992;-80
2023/01/30 12:29:27;;;;;;;7.28;5.15;;;5.00;81.40;;;;;;5036783;28;20250;-82
2023/01/30 12:32:05;;;;;;;9.05;5.28;;;5.00;81.30;;;;;;5032807;28;21227;-83
2023/01/30 12:34:33;;;;;;;9.02;5.72;;;5.10;81.20;;;;;;5027742;28;20207;-83
2023/01/30 12:37:21;;;;;;;6.70;4.82;;;5.00;81.30;;;;;;5033429;28;20302;-81
2023/01/30 12:39:59;;;;;;;9.32;5.75;;;5.00;81.40;;;;;;5034053;28;20685;-83
2023/01/30 12:42:42;;;;;;;9.57;5.47;;;5.10;81.30;;;;;;5039375;28;20215;-83
2023/01/30 12:45:21;;;;;;;8.20;5.55;;;5.10;81.40;;;;;;5041433;28;20212;-80
2023/01/30 12:48:28;;;;;;;7.40;4.93;;;5.10;81.50;;;;;;5039147;28;20642;-83
2023/01/30 12:51:05;;;;;;;10.00;5.00;;;5.10;81.50;;;;;;5019319;28;20981;-82
2023/01/30 12:53:48;;;;;;;9.05;5.80;;;5.10;81.40;;;;;;5042748;28;20252;-81
2023/01/30 12:56:40;;;;;;;7.47;5.28;;;5.10;81.40;;;;;;5013075;28;20230;-85
2023/01/30 12:59:13;;;;;;;8.77;6.32;;;5.10;81.40;;;;;;5025039;28;20215;-84
2023/01/30 13:01:51;;;;;;;8.13;5.28;;;5.20;81.50;;;;;;4990629;28;20584;-82
2023/01/30 13:04:29;;;;;;;9.05;5.10;;;5.10;81.40;;;;;;5043310;28;20203;-82
2023/01/30 13:07:08;;;;;;;7.95;4.82;;;5.10;81.50;;;;;;5040773;28;20197;-82
2023/01/30 13:09:54;;;;;;;8.38;5.68;;;5.10;81.60;;;;;;5045493;28;20272;-80
2023/01/30 13:12:30;;;;;;;12.57;5.03;;;5.20;81.40;;;;;;5044749;28;20276;-80
2023/01/30 13:15:07;;;;;;;8.20;5.30;;;5.20;81.50;;;;;;5038410;28;20215;-84
2023/01/30 13:17:52;;;;;;;8.10;5.85;;;5.20;81.60;;;;;;4991503;28;20219;-82